CheckWX is a tool to help pilots better visualize weather data.  It is not intended as a substitute for an official pre-flight weather briefing.

06:57:57 UTC

KCID TAF
The Eastern Iowa Airport
Cedar Rapids, Iowa, USA
KCID 210540Z 2106/2206 17010KT P6SM FEW100 FM211200 18012KT 6SM -SHRA BR BKN007 OVC015 FM211600 19014G20KT 4SM -SHRA BR OVC010 FM212200 19015G25KT 6SM BR VCTS OVC010CB FM220100 19011KT 3SM SHRA VCTS OVC015CB

Sep-21@
06:00 UTC

Sep-21 @ 06:00 UTC

Sep-21@
12:00 UTC

Sep-21 @ 12:00 UTC

KCID 210540Z 2106/2206 17010KT P6SM FEW100
Wind
  • 170° at 10 KTS
Cloud Levels
  • Few at 10,000' AGL

Sep-21@
12:00 UTC

Sep-21 @ 12:00 UTC

Sep-21@
16:00 UTC

Sep-21 @ 16:00 UTC

FM211200 18012KT 6SM -SHRA BR BKN007 OVC015

From

From Standard forecast or significant change

Wind
  • 180° at 12 KTS
Conditions
Light Rain, Mist
Cloud Levels
  • Broken at 700' AGL
  • Overcast at 1,500' AGL

Sep-21@
16:00 UTC

Sep-21 @ 16:00 UTC

Sep-21@
22:00 UTC

Sep-21 @ 22:00 UTC

FM211600 19014G20KT 4SM -SHRA BR OVC010

From

From Standard forecast or significant change

Wind
  • 190° at 14 KTS
  • {Gusting to 20 KTS
Conditions
Light Rain, Mist
Cloud Levels
  • Overcast at 1,000' AGL

Sep-21@
22:00 UTC

Sep-21 @ 22:00 UTC

Sep-22@
01:00 UTC

Sep-22 @ 01:00 UTC

FM212200 19015G25KT 6SM BR VCTS OVC010CB

From

From Standard forecast or significant change

Wind
  • 190° at 15 KTS
  • {Gusting to 25 KTS
Conditions
Mist, Area Thunderstorm
Cloud Levels
  • Overcast at 1,000' AGL

Sep-22@
01:00 UTC

Sep-22 @ 01:00 UTC

Sep-22@
06:00 UTC

Sep-22 @ 06:00 UTC

FM220100 19011KT 3SM SHRA VCTS OVC015CB

From

From Standard forecast or significant change

Wind
  • 190° at 11 KTS
Conditions
Rain, Area Thunderstorm
Cloud Levels
  • Overcast at 1,500' AGL